Terminal Aerodrome Forecast
Issued by NWS

Home | Current Version | Previous Version | Text Only | Print | Product List | Glossary On
Versions: 1 2 3 4 5 6 7 8 9 10 11 12
634
FTUS44 KBMX 242334
TAFTCL
TAF
KTCL 242334Z 2500/2524 02003KT P6SM FEW080
     FM251700 06005KT P6SM SCT060=

USA.gov is the U.S. government's official web portal to all federal, state and local government web resources and services.